Terminal Aerodrome Forecast
Issued by NWS

Home | Current Version | Previous Version | Text Only | Print | Product List | Glossary On
Versions: 1 2 3 4 5 6 7 8 9 10 11 12 13
000
FTUS41 KBTV 242331
TAFRUT
TAF
KRUT 242331Z 2500/2524 14006KT P6SM FEW250
     FM250300 14010KT P6SM FEW200
     FM251300 16006KT P6SM SCT200
     FM251900 21007KT P6SM VCSH BKN045
      AMD LTD TO CLD VIS AND WIND=

USA.gov is the U.S. government's official web portal to all federal, state and local government web resources and services.